SWA1873 KMCO-TNCM
Flight info
| Callsign | SWA1873 |
|---|---|
| Flight time | 2h 39m |
| Altitude | 39000 |
| Route | DDANY3 JIPOD DCT VENDS Y185 COUKY DCT FIPEK Y355 SLUGO DCT |
| Aircraft | B737/M-V/N |
Departure
| Time | 2026-04-22 12:03 |
|---|---|
| Airport | Orlando International Airport (KMCO) |
Arrival
| Time | 2026-04-22 14:43 |
|---|---|
| Airport | Princess Juliana International Airport (TNCM) |
| Time | Latitude | Longitude | Altitude | Speed | Heading |
|---|---|---|---|---|---|
| 2026-04-22 11:38 | 28.43593 | -81.30331 | 94 ft | 0 kts | 165° |
| 2026-04-22 11:48 | 28.43611 | -81.30337 | 94 ft | 4 kts | 157° |
| 2026-04-22 11:49 | 28.43634 | -81.30352 | 92 ft | 4 kts | 131° |
| 2026-04-22 11:49 | 28.43643 | -81.30374 | 94 ft | 4 kts | 66° |
| 2026-04-22 11:49 | 28.43638 | -81.30384 | 91 ft | 1 kts | 52° |
| 2026-04-22 11:53 | 28.43645 | -81.30373 | 93 ft | 3 kts | 53° |
| 2026-04-22 11:53 | 28.43660 | -81.30351 | 94 ft | 4 kts | 52° |
| 2026-04-22 11:54 | 28.43675 | -81.30329 | 95 ft | 3 kts | 52° |
| 2026-04-22 11:54 | 28.43690 | -81.30308 | 94 ft | 4 kts | 51° |
| 2026-04-22 11:54 | 28.43720 | -81.30265 | 93 ft | 10 kts | 51° |
| 2026-04-22 11:54 | 28.43772 | -81.30189 | 94 ft | 15 kts | 52° |
| 2026-04-22 11:55 | 28.43826 | -81.30091 | 95 ft | 14 kts | 82° |
| 2026-04-22 11:55 | 28.43812 | -81.29981 | 97 ft | 15 kts | 115° |
| 2026-04-22 11:55 | 28.43728 | -81.29902 | 94 ft | 17 kts | 161° |
| 2026-04-22 11:55 | 28.43609 | -81.29889 | 94 ft | 15 kts | 181° |
| 2026-04-22 11:56 | 28.43547 | -81.29822 | 94 ft | 14 kts | 86° |
| 2026-04-22 11:56 | 28.43523 | -81.29714 | 94 ft | 15 kts | 149° |
| 2026-04-22 11:56 | 28.43415 | -81.29712 | 94 ft | 16 kts | 178° |
| 2026-04-22 11:56 | 28.43301 | -81.29710 | 96 ft | 17 kts | 179° |
| 2026-04-22 11:57 | 28.43176 | -81.29709 | 96 ft | 19 kts | 179° |
| 2026-04-22 11:57 | 28.43037 | -81.29708 | 96 ft | 21 kts | 179° |
| 2026-04-22 11:57 | 28.42891 | -81.29706 | 94 ft | 22 kts | 178° |
| 2026-04-22 11:57 | 28.42734 | -81.29705 | 96 ft | 23 kts | 179° |
| 2026-04-22 11:58 | 28.42567 | -81.29702 | 94 ft | 24 kts | 179° |
| 2026-04-22 11:58 | 28.42398 | -81.29701 | 95 ft | 25 kts | 179° |
| 2026-04-22 11:58 | 28.42222 | -81.29700 | 95 ft | 26 kts | 180° |
| 2026-04-22 11:58 | 28.42048 | -81.29695 | 95 ft | 24 kts | 181° |
| 2026-04-22 11:59 | 28.41885 | -81.29696 | 94 ft | 23 kts | 179° |
| 2026-04-22 11:59 | 28.41727 | -81.29694 | 94 ft | 22 kts | 179° |
| 2026-04-22 11:59 | 28.41573 | -81.29692 | 98 ft | 22 kts | 179° |
| 2026-04-22 11:59 | 28.41424 | -81.29690 | 94 ft | 21 kts | 179° |
| 2026-04-22 12:00 | 28.41279 | -81.29689 | 95 ft | 21 kts | 179° |
| 2026-04-22 12:00 | 28.41138 | -81.29687 | 96 ft | 20 kts | 179° |
| 2026-04-22 12:00 | 28.41011 | -81.29686 | 94 ft | 13 kts | 179° |
| 2026-04-22 12:00 | 28.40933 | -81.29673 | 93 ft | 6 kts | 134° |
| 2026-04-22 12:01 | 28.40931 | -81.29669 | 93 ft | 0 kts | 121° |
| 2026-04-22 12:01 | 28.40931 | -81.29660 | 93 ft | 3 kts | 87° |
| 2026-04-22 12:01 | 28.40930 | -81.29614 | 94 ft | 9 kts | 91° |
| 2026-04-22 12:02 | 28.40959 | -81.29561 | 95 ft | 8 kts | 358° |
| 2026-04-22 12:02 | 28.41044 | -81.29560 | 95 ft | 23 kts | 360° |
| 2026-04-22 12:02 | 28.41466 | -81.29565 | 97 ft | 97 kts | 359° |
| 2026-04-22 12:02 | 28.42359 | -81.29574 | 101 ft | 156 kts | 360° |
| 2026-04-22 12:03 | 28.43481 | -81.29606 | 665 ft | 166 kts | 358° |
| 2026-04-22 12:03 | 28.44680 | -81.29657 | 1287 ft | 180 kts | 6° |
| 2026-04-22 12:03 | 28.45892 | -81.29107 | 1609 ft | 202 kts | 42° |
| 2026-04-22 12:03 | 28.47071 | -81.28051 | 1924 ft | 225 kts | 45° |
| 2026-04-22 12:04 | 28.47982 | -81.26609 | 2583 ft | 230 kts | 65° |
| 2026-04-22 12:04 | 28.48752 | -81.24910 | 3136 ft | 247 kts | 65° |
| 2026-04-22 12:04 | 28.49552 | -81.23158 | 4021 ft | 251 kts | 64° |
| 2026-04-22 12:04 | 28.50364 | -81.21394 | 4691 ft | 253 kts | 68° |
| 2026-04-22 12:05 | 28.50797 | -81.19476 | 5001 ft | 253 kts | 80° |
| 2026-04-22 12:05 | 28.51098 | -81.17492 | 4997 ft | 255 kts | 84° |
| 2026-04-22 12:05 | 28.50941 | -81.15500 | 5059 ft | 256 kts | 103° |
| 2026-04-22 12:05 | 28.50478 | -81.13526 | 5695 ft | 259 kts | 104° |
| 2026-04-22 12:06 | 28.50019 | -81.11565 | 6776 ft | 256 kts | 103° |
| 2026-04-22 12:06 | 28.49563 | -81.09583 | 7633 ft | 263 kts | 103° |
| 2026-04-22 12:06 | 28.49096 | -81.07538 | 8480 ft | 271 kts | 104° |
| 2026-04-22 12:06 | 28.48959 | -81.06939 | 8742 ft | 273 kts | 104° |
| 2026-04-22 12:07 | 28.48434 | -81.05271 | 9449 ft | 280 kts | 120° |
| 2026-04-22 12:07 | 28.47161 | -81.03572 | 10346 ft | 288 kts | 138° |
| 2026-04-22 12:07 | 28.45570 | -81.02076 | 10895 ft | 306 kts | 141° |
| 2026-04-22 12:07 | 28.43885 | -81.00576 | 11638 ft | 315 kts | 142° |
| 2026-04-22 12:08 | 28.42148 | -80.99038 | 12553 ft | 319 kts | 142° |
| 2026-04-22 12:08 | 28.40392 | -80.97471 | 13479 ft | 323 kts | 142° |
| 2026-04-22 12:08 | 28.38617 | -80.95873 | 14357 ft | 329 kts | 143° |
| 2026-04-22 12:08 | 28.36813 | -80.94240 | 15184 ft | 334 kts | 143° |
| 2026-04-22 12:09 | 28.34977 | -80.92573 | 15982 ft | 342 kts | 143° |
| 2026-04-22 12:09 | 28.33105 | -80.90871 | 16794 ft | 348 kts | 143° |
| 2026-04-22 12:09 | 28.31204 | -80.89142 | 17677 ft | 352 kts | 143° |
| 2026-04-22 12:09 | 28.29279 | -80.87390 | 18529 ft | 358 kts | 142° |
| 2026-04-22 12:10 | 28.27610 | -80.85255 | 19192 ft | 370 kts | 121° |
| 2026-04-22 12:10 | 28.26526 | -80.82578 | 19909 ft | 377 kts | 114° |
| 2026-04-22 12:10 | 28.25555 | -80.79787 | 20611 ft | 384 kts | 112° |
| 2026-04-22 12:10 | 28.24586 | -80.76941 | 21295 ft | 390 kts | 112° |
| 2026-04-22 12:11 | 28.23585 | -80.74054 | 21980 ft | 396 kts | 113° |
| 2026-04-22 12:11 | 28.22548 | -80.71135 | 22668 ft | 402 kts | 113° |
| 2026-04-22 12:11 | 28.21482 | -80.68173 | 23345 ft | 408 kts | 113° |
| 2026-04-22 12:11 | 28.20415 | -80.65162 | 23986 ft | 415 kts | 112° |
| 2026-04-22 12:12 | 28.19384 | -80.62075 | 24586 ft | 420 kts | 111° |
| 2026-04-22 12:12 | 28.18366 | -80.58953 | 25214 ft | 424 kts | 111° |
| 2026-04-22 12:12 | 28.17354 | -80.55842 | 25809 ft | 428 kts | 111° |
| 2026-04-22 12:12 | 28.16300 | -80.52617 | 26377 ft | 433 kts | 111° |
| 2026-04-22 12:13 | 28.15245 | -80.49411 | 26974 ft | 436 kts | 112° |
| 2026-04-22 12:13 | 28.14189 | -80.46217 | 27518 ft | 441 kts | 112° |
| 2026-04-22 12:13 | 28.13102 | -80.42940 | 28040 ft | 446 kts | 112° |
| 2026-04-22 12:13 | 28.12003 | -80.39632 | 28564 ft | 451 kts | 112° |
| 2026-04-22 12:14 | 28.10893 | -80.36291 | 29084 ft | 455 kts | 112° |
| 2026-04-22 12:14 | 28.09771 | -80.32919 | 29597 ft | 459 kts | 112° |
| 2026-04-22 12:14 | 28.08635 | -80.29515 | 30112 ft | 464 kts | 112° |
| 2026-04-22 12:14 | 28.07488 | -80.26089 | 30559 ft | 468 kts | 112° |
| 2026-04-22 12:15 | 28.06326 | -80.22623 | 30959 ft | 472 kts | 112° |
| 2026-04-22 12:15 | 28.05152 | -80.19127 | 31343 ft | 476 kts | 112° |
| 2026-04-22 12:15 | 28.03972 | -80.15616 | 31737 ft | 480 kts | 112° |
| 2026-04-22 12:15 | 28.02794 | -80.12110 | 32099 ft | 483 kts | 112° |
| 2026-04-22 12:16 | 28.01593 | -80.08539 | 32453 ft | 487 kts | 112° |
| 2026-04-22 12:16 | 28.00384 | -80.04947 | 32773 ft | 490 kts | 112° |
| 2026-04-22 12:16 | 27.99167 | -80.01332 | 33118 ft | 494 kts | 112° |
| 2026-04-22 12:16 | 27.97940 | -79.97693 | 33505 ft | 495 kts | 112° |
| 2026-04-22 12:17 | 27.96714 | -79.94060 | 33979 ft | 494 kts | 112° |
| 2026-04-22 12:17 | 27.95488 | -79.90429 | 34433 ft | 493 kts | 112° |
| 2026-04-22 12:17 | 27.94259 | -79.86796 | 34774 ft | 494 kts | 112° |
| 2026-04-22 12:17 | 27.93027 | -79.83157 | 35063 ft | 496 kts | 112° |
| 2026-04-22 12:18 | 27.91791 | -79.79512 | 35372 ft | 497 kts | 112° |
| 2026-04-22 12:18 | 27.90552 | -79.75858 | 35714 ft | 498 kts | 112° |
| 2026-04-22 12:18 | 27.89307 | -79.72192 | 36037 ft | 498 kts | 112° |
| 2026-04-22 12:18 | 27.88065 | -79.68538 | 36346 ft | 499 kts | 112° |
| 2026-04-22 12:19 | 27.86819 | -79.64876 | 36650 ft | 500 kts | 112° |
| 2026-04-22 12:19 | 27.85990 | -79.62443 | 36861 ft | 500 kts | 112° |
| 2026-04-22 12:19 | 27.84738 | -79.58771 | 37165 ft | 500 kts | 112° |
| 2026-04-22 12:19 | 27.83487 | -79.55104 | 37450 ft | 501 kts | 112° |
| 2026-04-22 12:20 | 27.81819 | -79.50219 | 37836 ft | 502 kts | 112° |
| 2026-04-22 12:20 | 27.80969 | -79.47734 | 38033 ft | 502 kts | 112° |
| 2026-04-22 12:20 | 27.79303 | -79.42868 | 38433 ft | 502 kts | 112° |
| 2026-04-22 12:20 | 27.78450 | -79.40376 | 38654 ft | 502 kts | 112° |
| 2026-04-22 12:21 | 27.77193 | -79.36711 | 38959 ft | 501 kts | 112° |
| 2026-04-22 12:21 | 27.75926 | -79.33021 | 38975 ft | 507 kts | 112° |
| 2026-04-22 12:21 | 27.73385 | -79.25632 | 38987 ft | 507 kts | 112° |
| 2026-04-22 12:22 | 27.70850 | -79.18270 | 38973 ft | 499 kts | 112° |
| 2026-04-22 12:22 | 27.68332 | -79.10973 | 38997 ft | 499 kts | 112° |
| 2026-04-22 12:23 | 27.65791 | -79.03629 | 39164 ft | 504 kts | 112° |
| 2026-04-22 12:23 | 27.64517 | -78.99952 | 39278 ft | 505 kts | 112° |
| 2026-04-22 12:23 | 27.63234 | -78.96251 | 39261 ft | 506 kts | 112° |
| 2026-04-22 12:24 | 27.60681 | -78.88895 | 39247 ft | 500 kts | 112° |
| 2026-04-22 12:24 | 27.58144 | -78.81603 | 39265 ft | 499 kts | 112° |
| 2026-04-22 12:25 | 27.55601 | -78.74310 | 39273 ft | 499 kts | 112° |
| 2026-04-22 12:25 | 27.53061 | -78.67037 | 39267 ft | 499 kts | 112° |
| 2026-04-22 12:26 | 27.50527 | -78.59798 | 39272 ft | 499 kts | 112° |
| 2026-04-22 12:26 | 27.47976 | -78.52522 | 39275 ft | 500 kts | 112° |
| 2026-04-22 12:27 | 27.45419 | -78.45241 | 39271 ft | 500 kts | 112° |
| 2026-04-22 12:27 | 27.42857 | -78.37962 | 39271 ft | 500 kts | 112° |
| 2026-04-22 12:28 | 27.40289 | -78.30682 | 39271 ft | 500 kts | 113° |
| 2026-04-22 12:28 | 27.37717 | -78.23400 | 39274 ft | 501 kts | 113° |
| 2026-04-22 12:29 | 27.35138 | -78.16112 | 39275 ft | 501 kts | 113° |
| 2026-04-22 12:29 | 27.31987 | -78.09170 | 39275 ft | 497 kts | 126° |
| 2026-04-22 12:30 | 27.26166 | -77.99521 | 39271 ft | 497 kts | 127° |
| 2026-04-22 12:31 | 27.22297 | -77.93074 | 39278 ft | 498 kts | 127° |
| 2026-04-22 12:31 | 27.18488 | -77.86641 | 39270 ft | 498 kts | 126° |
| 2026-04-22 12:32 | 27.14654 | -77.80156 | 39269 ft | 498 kts | 127° |
| 2026-04-22 12:32 | 27.08895 | -77.70445 | 39269 ft | 498 kts | 127° |
| 2026-04-22 12:33 | 27.05051 | -77.63978 | 39272 ft | 498 kts | 127° |
| 2026-04-22 12:33 | 27.01208 | -77.57520 | 39275 ft | 498 kts | 127° |
| 2026-04-22 12:34 | 26.97395 | -77.51038 | 39269 ft | 498 kts | 126° |
| 2026-04-22 12:34 | 26.93615 | -77.44532 | 39269 ft | 498 kts | 126° |
| 2026-04-22 12:35 | 26.89839 | -77.38038 | 39239 ft | 497 kts | 126° |
| 2026-04-22 12:35 | 26.86058 | -77.31559 | 39261 ft | 496 kts | 126° |
| 2026-04-22 12:36 | 26.82271 | -77.25089 | 39273 ft | 496 kts | 126° |
| 2026-04-22 12:36 | 26.78485 | -77.18630 | 39263 ft | 496 kts | 126° |
| 2026-04-22 12:37 | 26.74695 | -77.12174 | 39265 ft | 496 kts | 126° |
| 2026-04-22 12:37 | 26.70931 | -77.05770 | 39266 ft | 496 kts | 126° |
| 2026-04-22 12:38 | 26.67113 | -76.99284 | 39263 ft | 496 kts | 126° |
| 2026-04-22 12:38 | 26.63338 | -76.92880 | 39266 ft | 496 kts | 126° |
| 2026-04-22 12:39 | 26.57638 | -76.83227 | 39264 ft | 496 kts | 126° |
| 2026-04-22 12:40 | 26.53832 | -76.76792 | 39246 ft | 496 kts | 126° |
| 2026-04-22 12:40 | 26.50020 | -76.70358 | 39260 ft | 496 kts | 126° |
| 2026-04-22 12:41 | 26.46208 | -76.63933 | 39262 ft | 496 kts | 126° |
| 2026-04-22 12:41 | 26.42391 | -76.57508 | 39260 ft | 497 kts | 126° |
| 2026-04-22 12:42 | 26.38570 | -76.51085 | 39257 ft | 497 kts | 127° |
| 2026-04-22 12:42 | 26.34745 | -76.44664 | 39254 ft | 497 kts | 127° |
| 2026-04-22 12:43 | 26.30914 | -76.38243 | 39255 ft | 497 kts | 127° |
| 2026-04-22 12:43 | 26.27100 | -76.31860 | 39251 ft | 498 kts | 127° |
| 2026-04-22 12:44 | 26.23263 | -76.25445 | 39252 ft | 498 kts | 127° |
| 2026-04-22 12:44 | 26.19417 | -76.19027 | 39214 ft | 498 kts | 127° |
| 2026-04-22 12:45 | 26.15574 | -76.12620 | 39244 ft | 497 kts | 127° |
| 2026-04-22 12:45 | 26.11730 | -76.06223 | 39249 ft | 497 kts | 127° |
| 2026-04-22 12:46 | 26.07881 | -75.99826 | 39250 ft | 497 kts | 127° |
| 2026-04-22 12:46 | 26.04026 | -75.93426 | 39245 ft | 497 kts | 127° |
| 2026-04-22 12:47 | 26.00177 | -75.87046 | 39244 ft | 497 kts | 127° |
| 2026-04-22 12:47 | 25.96322 | -75.80666 | 39245 ft | 497 kts | 127° |
| 2026-04-22 12:48 | 25.92468 | -75.74296 | 39244 ft | 497 kts | 127° |
| 2026-04-22 12:48 | 25.88610 | -75.67926 | 39239 ft | 497 kts | 127° |
| 2026-04-22 12:49 | 25.84743 | -75.61552 | 39239 ft | 497 kts | 127° |
| 2026-04-22 12:49 | 25.80903 | -75.55231 | 39235 ft | 496 kts | 127° |
| 2026-04-22 12:50 | 25.77040 | -75.48880 | 39240 ft | 496 kts | 127° |
| 2026-04-22 12:50 | 25.73170 | -75.42527 | 39244 ft | 497 kts | 127° |
| 2026-04-22 12:51 | 25.69295 | -75.36176 | 39237 ft | 497 kts | 127° |
| 2026-04-22 12:51 | 25.65416 | -75.29824 | 39237 ft | 497 kts | 127° |
| 2026-04-22 12:52 | 25.61532 | -75.23474 | 39234 ft | 498 kts | 127° |
| 2026-04-22 12:52 | 25.57645 | -75.17128 | 39234 ft | 498 kts | 127° |
| 2026-04-22 12:53 | 25.53751 | -75.10778 | 39232 ft | 498 kts | 127° |
| 2026-04-22 12:53 | 25.49854 | -75.04433 | 39234 ft | 498 kts | 128° |
| 2026-04-22 12:54 | 25.45959 | -74.98099 | 39221 ft | 497 kts | 128° |
| 2026-04-22 12:54 | 25.42089 | -74.91813 | 39227 ft | 497 kts | 128° |
| 2026-04-22 12:55 | 25.38821 | -74.86512 | 39229 ft | 497 kts | 128° |
| 2026-04-22 12:55 | 25.34288 | -74.79170 | 39233 ft | 497 kts | 128° |
| 2026-04-22 12:56 | 25.30387 | -74.72859 | 39227 ft | 497 kts | 128° |
| 2026-04-22 12:56 | 25.26481 | -74.66550 | 39221 ft | 497 kts | 128° |
| 2026-04-22 12:57 | 25.22574 | -74.60248 | 39221 ft | 497 kts | 128° |
| 2026-04-22 12:57 | 25.18661 | -74.53943 | 39221 ft | 497 kts | 128° |
| 2026-04-22 12:58 | 25.14744 | -74.47640 | 39222 ft | 497 kts | 128° |
| 2026-04-22 12:58 | 25.10832 | -74.41355 | 39183 ft | 497 kts | 128° |
| 2026-04-22 12:59 | 25.06918 | -74.35074 | 39221 ft | 497 kts | 128° |
| 2026-04-22 12:59 | 25.03024 | -74.28835 | 39219 ft | 497 kts | 128° |
| 2026-04-22 13:00 | 24.99103 | -74.22559 | 39218 ft | 497 kts | 128° |
| 2026-04-22 13:00 | 24.95175 | -74.16280 | 39218 ft | 497 kts | 128° |
| 2026-04-22 13:01 | 24.91244 | -74.10004 | 39218 ft | 498 kts | 128° |
| 2026-04-22 13:01 | 24.87310 | -74.03732 | 39212 ft | 498 kts | 128° |
| 2026-04-22 13:02 | 24.83367 | -73.97454 | 39216 ft | 498 kts | 128° |
| 2026-04-22 13:02 | 24.79423 | -73.91183 | 39212 ft | 498 kts | 128° |
| 2026-04-22 13:03 | 24.75474 | -73.84911 | 39206 ft | 498 kts | 128° |
| 2026-04-22 13:03 | 24.71525 | -73.78647 | 39202 ft | 498 kts | 129° |
| 2026-04-22 13:04 | 24.68244 | -73.73450 | 39203 ft | 498 kts | 129° |
| 2026-04-22 13:04 | 24.63646 | -73.66174 | 39204 ft | 498 kts | 129° |
| 2026-04-22 13:05 | 24.59690 | -73.59922 | 39199 ft | 498 kts | 129° |
| 2026-04-22 13:05 | 24.56376 | -73.54694 | 39198 ft | 498 kts | 129° |
| 2026-04-22 13:06 | 24.52346 | -73.48576 | 39203 ft | 497 kts | 130° |
| 2026-04-22 13:06 | 24.48213 | -73.42445 | 39201 ft | 497 kts | 131° |
| 2026-04-22 13:07 | 24.44131 | -73.36381 | 39193 ft | 497 kts | 130° |
| 2026-04-22 13:07 | 24.40032 | -73.30268 | 39193 ft | 497 kts | 130° |
| 2026-04-22 13:08 | 24.35939 | -73.24158 | 39188 ft | 496 kts | 131° |
| 2026-04-22 13:08 | 24.31850 | -73.18062 | 39193 ft | 496 kts | 131° |
| 2026-04-22 13:09 | 24.27755 | -73.11966 | 39188 ft | 496 kts | 131° |
| 2026-04-22 13:09 | 24.23660 | -73.05879 | 39185 ft | 496 kts | 131° |
| 2026-04-22 13:10 | 24.19559 | -72.99791 | 39185 ft | 496 kts | 131° |
| 2026-04-22 13:10 | 24.15461 | -72.93713 | 39186 ft | 496 kts | 131° |
| 2026-04-22 13:11 | 24.11361 | -72.87641 | 39184 ft | 496 kts | 131° |
| 2026-04-22 13:11 | 24.07258 | -72.81572 | 39185 ft | 496 kts | 131° |
| 2026-04-22 13:12 | 24.03157 | -72.75512 | 39182 ft | 495 kts | 131° |
| 2026-04-22 13:12 | 23.99082 | -72.69499 | 39165 ft | 495 kts | 131° |
| 2026-04-22 13:13 | 23.94981 | -72.63454 | 39172 ft | 495 kts | 131° |
| 2026-04-22 13:13 | 23.90877 | -72.57413 | 39180 ft | 494 kts | 132° |
| 2026-04-22 13:14 | 23.86770 | -72.51374 | 39176 ft | 495 kts | 132° |
| 2026-04-22 13:14 | 23.82659 | -72.45338 | 39174 ft | 495 kts | 132° |
| 2026-04-22 13:15 | 23.78554 | -72.39316 | 39171 ft | 495 kts | 132° |
| 2026-04-22 13:15 | 23.74442 | -72.33292 | 39171 ft | 495 kts | 132° |
| 2026-04-22 13:16 | 23.70327 | -72.27271 | 39169 ft | 495 kts | 132° |
| 2026-04-22 13:16 | 23.66214 | -72.21259 | 39172 ft | 495 kts | 132° |
| 2026-04-22 13:17 | 23.62109 | -72.15266 | 39168 ft | 495 kts | 132° |
| 2026-04-22 13:17 | 23.57990 | -72.09261 | 39166 ft | 495 kts | 132° |
| 2026-04-22 13:18 | 23.53868 | -72.03257 | 39164 ft | 494 kts | 132° |
| 2026-04-22 13:18 | 23.49772 | -71.97299 | 39166 ft | 494 kts | 132° |
| 2026-04-22 13:19 | 23.45646 | -71.91303 | 39166 ft | 494 kts | 132° |
| 2026-04-22 13:19 | 23.41520 | -71.85314 | 39161 ft | 494 kts | 133° |
| 2026-04-22 13:20 | 23.37395 | -71.79333 | 39160 ft | 494 kts | 133° |
| 2026-04-22 13:20 | 23.33338 | -71.73288 | 39160 ft | 495 kts | 130° |
| 2026-04-22 13:21 | 23.29430 | -71.67098 | 39161 ft | 496 kts | 130° |
| 2026-04-22 13:21 | 23.25546 | -71.60911 | 39152 ft | 495 kts | 130° |
| 2026-04-22 13:22 | 23.21636 | -71.54746 | 39155 ft | 495 kts | 130° |
| 2026-04-22 13:22 | 23.17713 | -71.48602 | 39160 ft | 495 kts | 130° |
| 2026-04-22 13:23 | 23.13785 | -71.42467 | 39158 ft | 495 kts | 130° |
| 2026-04-22 13:23 | 23.09848 | -71.36322 | 39153 ft | 495 kts | 131° |
| 2026-04-22 13:24 | 23.05938 | -71.30224 | 39153 ft | 495 kts | 131° |
| 2026-04-22 13:24 | 23.02006 | -71.24098 | 39152 ft | 495 kts | 131° |
| 2026-04-22 13:25 | 22.98033 | -71.17917 | 39153 ft | 495 kts | 131° |
| 2026-04-22 13:25 | 22.94113 | -71.11825 | 39156 ft | 495 kts | 131° |
| 2026-04-22 13:26 | 22.90167 | -71.05699 | 39108 ft | 495 kts | 131° |
| 2026-04-22 13:26 | 22.86222 | -70.99581 | 39140 ft | 494 kts | 131° |
| 2026-04-22 13:27 | 22.82279 | -70.93476 | 39142 ft | 494 kts | 131° |
| 2026-04-22 13:27 | 22.78332 | -70.87370 | 39142 ft | 494 kts | 131° |
| 2026-04-22 13:28 | 22.74386 | -70.81274 | 39141 ft | 494 kts | 131° |
| 2026-04-22 13:28 | 22.70438 | -70.75180 | 39144 ft | 494 kts | 131° |
| 2026-04-22 13:29 | 22.66487 | -70.69090 | 39142 ft | 494 kts | 131° |
| 2026-04-22 13:29 | 22.62535 | -70.63006 | 39138 ft | 494 kts | 131° |
| 2026-04-22 13:30 | 22.58582 | -70.56927 | 39134 ft | 494 kts | 131° |
| 2026-04-22 13:30 | 22.54651 | -70.50887 | 39139 ft | 493 kts | 131° |
| 2026-04-22 13:31 | 22.50695 | -70.44817 | 39111 ft | 493 kts | 131° |
| 2026-04-22 13:31 | 22.46744 | -70.38762 | 39119 ft | 492 kts | 131° |
| 2026-04-22 13:32 | 22.42795 | -70.32717 | 39128 ft | 492 kts | 131° |
| 2026-04-22 13:32 | 22.38847 | -70.26680 | 39126 ft | 492 kts | 131° |
| 2026-04-22 13:33 | 22.34896 | -70.20645 | 39123 ft | 491 kts | 131° |
| 2026-04-22 13:33 | 22.30950 | -70.14623 | 39126 ft | 491 kts | 132° |
| 2026-04-22 13:34 | 22.27003 | -70.08609 | 39124 ft | 490 kts | 132° |
| 2026-04-22 13:34 | 22.23058 | -70.02604 | 39121 ft | 490 kts | 132° |
| 2026-04-22 13:35 | 22.19115 | -69.96608 | 39119 ft | 490 kts | 132° |
| 2026-04-22 13:35 | 22.15172 | -69.90620 | 39119 ft | 489 kts | 132° |
| 2026-04-22 13:36 | 22.11233 | -69.84642 | 39112 ft | 488 kts | 133° |
| 2026-04-22 13:36 | 22.07299 | -69.78681 | 39110 ft | 487 kts | 133° |
| 2026-04-22 13:37 | 22.03373 | -69.72738 | 39113 ft | 487 kts | 133° |
| 2026-04-22 13:37 | 21.99443 | -69.66796 | 39126 ft | 488 kts | 133° |
| 2026-04-22 13:38 | 21.95498 | -69.60839 | 39106 ft | 488 kts | 133° |
| 2026-04-22 13:38 | 21.89581 | -69.51913 | 39098 ft | 487 kts | 133° |
| 2026-04-22 13:39 | 21.85644 | -69.45980 | 39108 ft | 486 kts | 133° |
| 2026-04-22 13:39 | 21.81735 | -69.40099 | 39110 ft | 486 kts | 133° |
| 2026-04-22 13:40 | 21.77804 | -69.34191 | 39108 ft | 485 kts | 133° |
| 2026-04-22 13:40 | 21.73870 | -69.28284 | 39100 ft | 484 kts | 133° |
| 2026-04-22 13:41 | 21.69946 | -69.22399 | 39103 ft | 484 kts | 133° |
| 2026-04-22 13:41 | 21.66025 | -69.16524 | 39101 ft | 483 kts | 134° |
| 2026-04-22 13:42 | 21.62103 | -69.10654 | 39108 ft | 483 kts | 134° |
| 2026-04-22 13:42 | 21.58180 | -69.04791 | 39100 ft | 483 kts | 134° |
| 2026-04-22 13:43 | 21.54252 | -68.98924 | 39099 ft | 483 kts | 134° |
| 2026-04-22 13:43 | 21.50326 | -68.93067 | 39098 ft | 483 kts | 134° |
| 2026-04-22 13:44 | 21.46397 | -68.87212 | 39101 ft | 483 kts | 134° |
| 2026-04-22 13:44 | 21.42468 | -68.81362 | 39094 ft | 483 kts | 134° |
| 2026-04-22 13:45 | 21.38537 | -68.75516 | 39098 ft | 483 kts | 134° |
| 2026-04-22 13:45 | 21.35242 | -68.70621 | 39089 ft | 482 kts | 134° |
| 2026-04-22 13:46 | 21.31336 | -68.64823 | 39088 ft | 482 kts | 134° |
| 2026-04-22 13:46 | 21.27403 | -68.58992 | 39087 ft | 482 kts | 134° |
| 2026-04-22 13:47 | 21.23466 | -68.53161 | 39089 ft | 482 kts | 134° |
| 2026-04-22 13:47 | 21.19535 | -68.47344 | 39092 ft | 482 kts | 134° |
| 2026-04-22 13:48 | 21.15596 | -68.41521 | 39087 ft | 482 kts | 134° |
| 2026-04-22 13:48 | 21.11658 | -68.35707 | 39088 ft | 482 kts | 134° |
| 2026-04-22 13:49 | 21.07745 | -68.29936 | 39091 ft | 482 kts | 134° |
| 2026-04-22 13:49 | 21.03778 | -68.24089 | 39090 ft | 482 kts | 134° |
| 2026-04-22 13:50 | 20.99863 | -68.18327 | 39082 ft | 482 kts | 134° |
| 2026-04-22 13:50 | 20.95919 | -68.12526 | 39079 ft | 481 kts | 134° |
| 2026-04-22 13:51 | 20.91983 | -68.06742 | 39082 ft | 480 kts | 134° |
| 2026-04-22 13:51 | 20.88046 | -68.00963 | 39084 ft | 480 kts | 134° |
| 2026-04-22 13:52 | 20.84081 | -67.95239 | 39085 ft | 478 kts | 136° |
| 2026-04-22 13:52 | 20.79989 | -67.89649 | 39083 ft | 477 kts | 136° |
| 2026-04-22 13:53 | 20.75880 | -67.84075 | 39086 ft | 477 kts | 136° |
| 2026-04-22 13:53 | 20.71791 | -67.78492 | 39091 ft | 477 kts | 136° |
| 2026-04-22 13:54 | 20.67710 | -67.72901 | 39083 ft | 477 kts | 136° |
| 2026-04-22 13:54 | 20.63629 | -67.67312 | 39089 ft | 477 kts | 136° |
| 2026-04-22 13:55 | 20.59566 | -67.61756 | 39067 ft | 477 kts | 136° |
| 2026-04-22 13:55 | 20.55484 | -67.56180 | 39080 ft | 477 kts | 136° |
| 2026-04-22 13:56 | 20.51402 | -67.50608 | 39082 ft | 477 kts | 136° |
| 2026-04-22 13:56 | 20.47315 | -67.45036 | 39085 ft | 477 kts | 136° |
| 2026-04-22 13:57 | 20.43220 | -67.39458 | 39085 ft | 477 kts | 136° |
| 2026-04-22 13:57 | 20.39129 | -67.33891 | 39085 ft | 477 kts | 136° |
| 2026-04-22 13:58 | 20.35036 | -67.28327 | 39082 ft | 477 kts | 136° |
| 2026-04-22 13:58 | 20.30967 | -67.22799 | 39080 ft | 477 kts | 136° |
| 2026-04-22 13:59 | 20.26866 | -67.17231 | 39078 ft | 478 kts | 136° |
| 2026-04-22 13:59 | 20.22760 | -67.11661 | 39076 ft | 478 kts | 136° |
| 2026-04-22 14:00 | 20.18656 | -67.06099 | 39073 ft | 477 kts | 135° |
| 2026-04-22 14:00 | 20.14561 | -67.00555 | 39076 ft | 477 kts | 135° |
| 2026-04-22 14:01 | 20.10460 | -66.95008 | 39077 ft | 476 kts | 135° |
| 2026-04-22 14:01 | 20.06362 | -66.89470 | 39076 ft | 476 kts | 135° |
| 2026-04-22 14:02 | 20.02259 | -66.83929 | 39075 ft | 476 kts | 135° |
| 2026-04-22 14:02 | 19.98312 | -66.78251 | 39065 ft | 484 kts | 126° |
| 2026-04-22 14:03 | 19.95119 | -66.71922 | 39074 ft | 486 kts | 123° |
| 2026-04-22 14:03 | 19.92037 | -66.65566 | 39077 ft | 486 kts | 123° |
| 2026-04-22 14:04 | 19.88908 | -66.59205 | 39073 ft | 486 kts | 124° |
| 2026-04-22 14:04 | 19.85745 | -66.52867 | 39072 ft | 485 kts | 124° |
| 2026-04-22 14:05 | 19.82565 | -66.46528 | 39071 ft | 485 kts | 124° |
| 2026-04-22 14:06 | 19.77803 | -66.37047 | 39074 ft | 485 kts | 124° |
| 2026-04-22 14:06 | 19.74625 | -66.30722 | 39073 ft | 485 kts | 124° |
| 2026-04-22 14:07 | 19.71451 | -66.24413 | 39070 ft | 485 kts | 124° |
| 2026-04-22 14:07 | 19.68271 | -66.18096 | 39071 ft | 485 kts | 124° |
| 2026-04-22 14:08 | 19.65087 | -66.11780 | 39007 ft | 487 kts | 124° |
| 2026-04-22 14:08 | 19.63482 | -66.08605 | 38636 ft | 489 kts | 124° |
| 2026-04-22 14:08 | 19.61881 | -66.05432 | 38307 ft | 487 kts | 124° |
| 2026-04-22 14:08 | 19.60285 | -66.02269 | 37914 ft | 487 kts | 124° |
| 2026-04-22 14:09 | 19.58704 | -65.99140 | 37487 ft | 488 kts | 124° |
| 2026-04-22 14:09 | 19.57097 | -65.95965 | 37058 ft | 489 kts | 124° |
| 2026-04-22 14:09 | 19.55488 | -65.92785 | 36635 ft | 490 kts | 123° |
| 2026-04-22 14:09 | 19.53876 | -65.89599 | 36222 ft | 491 kts | 123° |
| 2026-04-22 14:10 | 19.52259 | -65.86406 | 35803 ft | 491 kts | 123° |
| 2026-04-22 14:10 | 19.50642 | -65.83216 | 35416 ft | 491 kts | 123° |
| 2026-04-22 14:10 | 19.49024 | -65.80024 | 35022 ft | 491 kts | 123° |
| 2026-04-22 14:10 | 19.47407 | -65.76835 | 34634 ft | 492 kts | 123° |
| 2026-04-22 14:11 | 19.45789 | -65.73648 | 34249 ft | 492 kts | 123° |
| 2026-04-22 14:11 | 19.44165 | -65.70448 | 33832 ft | 492 kts | 123° |
| 2026-04-22 14:11 | 19.42541 | -65.67252 | 33404 ft | 492 kts | 123° |
| 2026-04-22 14:11 | 19.40914 | -65.64052 | 32977 ft | 493 kts | 123° |
| 2026-04-22 14:12 | 19.39288 | -65.60855 | 32541 ft | 493 kts | 122° |
| 2026-04-22 14:12 | 19.37661 | -65.57657 | 32131 ft | 494 kts | 122° |
| 2026-04-22 14:12 | 19.36029 | -65.54452 | 31718 ft | 494 kts | 122° |
| 2026-04-22 14:12 | 19.34400 | -65.51253 | 31322 ft | 494 kts | 122° |
| 2026-04-22 14:13 | 19.32766 | -65.48046 | 30924 ft | 495 kts | 122° |
| 2026-04-22 14:13 | 19.31129 | -65.44836 | 30534 ft | 496 kts | 122° |
| 2026-04-22 14:13 | 19.29486 | -65.41618 | 30147 ft | 497 kts | 122° |
| 2026-04-22 14:13 | 19.27842 | -65.38400 | 29700 ft | 498 kts | 122° |
| 2026-04-22 14:14 | 19.26214 | -65.35216 | 29261 ft | 498 kts | 122° |
| 2026-04-22 14:14 | 19.24565 | -65.31991 | 28821 ft | 498 kts | 122° |
| 2026-04-22 14:14 | 19.22912 | -65.28761 | 28379 ft | 498 kts | 122° |
| 2026-04-22 14:14 | 19.21261 | -65.25533 | 27953 ft | 498 kts | 122° |
| 2026-04-22 14:15 | 19.19611 | -65.22309 | 27517 ft | 497 kts | 122° |
| 2026-04-22 14:15 | 19.17963 | -65.19090 | 27111 ft | 497 kts | 122° |
| 2026-04-22 14:15 | 19.16318 | -65.15881 | 26702 ft | 496 kts | 122° |
| 2026-04-22 14:15 | 19.14671 | -65.12670 | 26302 ft | 496 kts | 122° |
| 2026-04-22 14:16 | 19.13024 | -65.09459 | 25899 ft | 496 kts | 122° |
| 2026-04-22 14:16 | 19.11378 | -65.06252 | 25503 ft | 496 kts | 122° |
| 2026-04-22 14:16 | 19.09734 | -65.03051 | 25119 ft | 495 kts | 121° |
| 2026-04-22 14:16 | 19.08095 | -64.99861 | 24739 ft | 493 kts | 121° |
| 2026-04-22 14:17 | 19.06464 | -64.96688 | 24366 ft | 490 kts | 121° |
| 2026-04-22 14:17 | 19.04840 | -64.93528 | 23983 ft | 487 kts | 121° |
| 2026-04-22 14:17 | 19.03229 | -64.90397 | 23605 ft | 483 kts | 121° |
| 2026-04-22 14:17 | 19.01634 | -64.87298 | 23156 ft | 476 kts | 121° |
| 2026-04-22 14:18 | 19.00072 | -64.84263 | 22710 ft | 464 kts | 121° |
| 2026-04-22 14:18 | 18.98553 | -64.81311 | 22270 ft | 451 kts | 121° |
| 2026-04-22 14:18 | 18.97089 | -64.78470 | 21832 ft | 440 kts | 121° |
| 2026-04-22 14:18 | 18.95642 | -64.75665 | 21413 ft | 429 kts | 121° |
| 2026-04-22 14:19 | 18.94230 | -64.72929 | 21010 ft | 420 kts | 121° |
| 2026-04-22 14:19 | 18.92848 | -64.70253 | 20668 ft | 409 kts | 121° |
| 2026-04-22 14:19 | 18.91499 | -64.67643 | 20330 ft | 400 kts | 121° |
| 2026-04-22 14:19 | 18.90179 | -64.65092 | 19992 ft | 392 kts | 121° |
| 2026-04-22 14:20 | 18.87618 | -64.60143 | 19339 ft | 377 kts | 121° |
| 2026-04-22 14:20 | 18.86371 | -64.57733 | 19017 ft | 370 kts | 121° |
| 2026-04-22 14:20 | 18.85147 | -64.55371 | 18706 ft | 364 kts | 121° |
| 2026-04-22 14:21 | 18.82750 | -64.50746 | 18036 ft | 354 kts | 120° |
| 2026-04-22 14:21 | 18.81573 | -64.48477 | 17682 ft | 351 kts | 120° |
| 2026-04-22 14:22 | 18.79254 | -64.44007 | 16970 ft | 344 kts | 120° |
| 2026-04-22 14:22 | 18.78107 | -64.41797 | 16631 ft | 342 kts | 120° |
| 2026-04-22 14:22 | 18.75843 | -64.37436 | 15947 ft | 337 kts | 120° |
| 2026-04-22 14:23 | 18.74719 | -64.35273 | 15625 ft | 335 kts | 120° |
| 2026-04-22 14:23 | 18.73619 | -64.33156 | 15296 ft | 333 kts | 119° |
| 2026-04-22 14:23 | 18.72509 | -64.31022 | 14967 ft | 331 kts | 119° |
| 2026-04-22 14:23 | 18.71406 | -64.28901 | 14649 ft | 329 kts | 119° |
| 2026-04-22 14:24 | 18.70310 | -64.26792 | 14323 ft | 327 kts | 119° |
| 2026-04-22 14:24 | 18.69216 | -64.24692 | 13996 ft | 325 kts | 119° |
| 2026-04-22 14:24 | 18.68133 | -64.22609 | 13674 ft | 323 kts | 119° |
| 2026-04-22 14:24 | 18.67052 | -64.20534 | 13314 ft | 321 kts | 118° |
| 2026-04-22 14:25 | 18.65980 | -64.18476 | 12958 ft | 319 kts | 118° |
| 2026-04-22 14:25 | 18.64912 | -64.16427 | 12611 ft | 318 kts | 118° |
| 2026-04-22 14:25 | 18.63853 | -64.14394 | 12268 ft | 315 kts | 118° |
| 2026-04-22 14:25 | 18.62800 | -64.12376 | 11920 ft | 313 kts | 118° |
| 2026-04-22 14:26 | 18.61754 | -64.10370 | 11589 ft | 311 kts | 118° |
| 2026-04-22 14:26 | 18.60716 | -64.08381 | 11251 ft | 309 kts | 117° |
| 2026-04-22 14:26 | 18.59686 | -64.06407 | 11099 ft | 306 kts | 118° |
| 2026-04-22 14:26 | 18.58661 | -64.04443 | 11068 ft | 306 kts | 118° |
| 2026-04-22 14:27 | 18.57638 | -64.02484 | 11069 ft | 305 kts | 117° |
| 2026-04-22 14:27 | 18.56613 | -64.00520 | 11063 ft | 305 kts | 117° |
| 2026-04-22 14:27 | 18.55588 | -63.98560 | 11069 ft | 305 kts | 118° |
| 2026-04-22 14:27 | 18.54567 | -63.96605 | 11060 ft | 305 kts | 117° |
| 2026-04-22 14:28 | 18.53542 | -63.94644 | 11058 ft | 304 kts | 117° |
| 2026-04-22 14:28 | 18.52535 | -63.92720 | 11061 ft | 304 kts | 117° |
| 2026-04-22 14:28 | 18.51513 | -63.90765 | 11062 ft | 304 kts | 117° |
| 2026-04-22 14:28 | 18.50491 | -63.88813 | 11053 ft | 304 kts | 117° |
| 2026-04-22 14:29 | 18.49468 | -63.86858 | 11064 ft | 304 kts | 117° |
| 2026-04-22 14:29 | 18.48444 | -63.84903 | 11070 ft | 304 kts | 117° |
| 2026-04-22 14:29 | 18.47420 | -63.82947 | 11056 ft | 305 kts | 118° |
| 2026-04-22 14:29 | 18.46395 | -63.80991 | 11057 ft | 305 kts | 118° |
| 2026-04-22 14:30 | 18.45371 | -63.79037 | 11068 ft | 305 kts | 117° |
| 2026-04-22 14:30 | 18.44345 | -63.77080 | 11061 ft | 305 kts | 117° |
| 2026-04-22 14:30 | 18.43318 | -63.75120 | 11061 ft | 305 kts | 118° |
| 2026-04-22 14:30 | 18.42291 | -63.73162 | 11060 ft | 305 kts | 117° |
| 2026-04-22 14:31 | 18.41610 | -63.71864 | 11058 ft | 306 kts | 117° |
| 2026-04-22 14:31 | 18.40581 | -63.69904 | 11065 ft | 306 kts | 118° |
| 2026-04-22 14:31 | 18.39551 | -63.67945 | 11056 ft | 306 kts | 117° |
| 2026-04-22 14:31 | 18.38377 | -63.66060 | 10789 ft | 312 kts | 131° |
| 2026-04-22 14:32 | 18.36843 | -63.64451 | 10469 ft | 309 kts | 136° |
| 2026-04-22 14:32 | 18.35275 | -63.62928 | 10144 ft | 304 kts | 136° |
| 2026-04-22 14:32 | 18.33728 | -63.61440 | 9801 ft | 299 kts | 136° |
| 2026-04-22 14:32 | 18.32209 | -63.59970 | 9439 ft | 295 kts | 136° |
| 2026-04-22 14:33 | 18.30716 | -63.58513 | 9090 ft | 291 kts | 136° |
| 2026-04-22 14:33 | 18.29248 | -63.57072 | 8734 ft | 287 kts | 135° |
| 2026-04-22 14:33 | 18.27799 | -63.55643 | 8386 ft | 284 kts | 135° |
| 2026-04-22 14:33 | 18.26372 | -63.54231 | 8047 ft | 281 kts | 135° |
| 2026-04-22 14:34 | 18.24957 | -63.52829 | 7711 ft | 278 kts | 135° |
| 2026-04-22 14:34 | 18.23559 | -63.51443 | 7366 ft | 275 kts | 135° |
| 2026-04-22 14:34 | 18.22179 | -63.50073 | 7045 ft | 272 kts | 135° |
| 2026-04-22 14:34 | 18.20809 | -63.48713 | 6718 ft | 270 kts | 135° |
| 2026-04-22 14:35 | 18.19448 | -63.47363 | 6381 ft | 267 kts | 135° |
| 2026-04-22 14:35 | 18.18100 | -63.46025 | 6025 ft | 265 kts | 135° |
| 2026-04-22 14:35 | 18.16762 | -63.44697 | 5682 ft | 263 kts | 135° |
| 2026-04-22 14:35 | 18.15438 | -63.43383 | 5334 ft | 260 kts | 135° |
| 2026-04-22 14:36 | 18.14131 | -63.42084 | 4993 ft | 258 kts | 135° |
| 2026-04-22 14:36 | 18.12829 | -63.40793 | 4652 ft | 256 kts | 136° |
| 2026-04-22 14:36 | 18.11537 | -63.39512 | 4304 ft | 255 kts | 136° |
| 2026-04-22 14:36 | 18.10257 | -63.38242 | 3955 ft | 250 kts | 135° |
| 2026-04-22 14:37 | 18.09013 | -63.37009 | 3602 ft | 242 kts | 135° |
| 2026-04-22 14:37 | 18.07808 | -63.35815 | 3255 ft | 235 kts | 134° |
| 2026-04-22 14:37 | 18.06631 | -63.34649 | 2902 ft | 229 kts | 135° |
| 2026-04-22 14:37 | 18.05515 | -63.33543 | 2674 ft | 216 kts | 134° |
| 2026-04-22 14:38 | 18.04461 | -63.32502 | 2604 ft | 200 kts | 135° |
| 2026-04-22 14:38 | 18.03475 | -63.31526 | 2597 ft | 188 kts | 135° |
| 2026-04-22 14:38 | 18.02534 | -63.30594 | 2608 ft | 184 kts | 135° |
| 2026-04-22 14:38 | 18.01713 | -63.29591 | 2594 ft | 185 kts | 111° |
| 2026-04-22 14:39 | 18.01594 | -63.28244 | 2491 ft | 189 kts | 81° |
| 2026-04-22 14:39 | 18.01789 | -63.26890 | 2215 ft | 189 kts | 80° |
| 2026-04-22 14:39 | 18.01987 | -63.25543 | 1932 ft | 184 kts | 81° |
| 2026-04-22 14:40 | 18.02374 | -63.22880 | 1753 ft | 180 kts | 81° |
| 2026-04-22 14:40 | 18.02568 | -63.21539 | 1719 ft | 186 kts | 80° |
| 2026-04-22 14:40 | 18.02759 | -63.20221 | 1708 ft | 180 kts | 81° |
| 2026-04-22 14:40 | 18.02941 | -63.18933 | 1631 ft | 181 kts | 81° |
| 2026-04-22 14:41 | 18.03124 | -63.17621 | 1376 ft | 180 kts | 80° |
| 2026-04-22 14:41 | 18.03301 | -63.16365 | 996 ft | 167 kts | 81° |
| 2026-04-22 14:41 | 18.03481 | -63.15258 | 865 ft | 139 kts | 79° |
| 2026-04-22 14:41 | 18.03604 | -63.14312 | 588 ft | 127 kts | 81° |
| 2026-04-22 14:42 | 18.03730 | -63.13435 | 328 ft | 117 kts | 81° |
| 2026-04-22 14:42 | 18.03853 | -63.12556 | 185 ft | 121 kts | 81° |
| 2026-04-22 14:42 | 18.03976 | -63.11690 | 34 ft | 118 kts | 80° |
| 2026-04-22 14:42 | 18.04079 | -63.10983 | 27 ft | 69 kts | 81° |
| 2026-04-22 14:43 | 18.04123 | -63.10676 | 26 ft | 27 kts | 81° |
| 2026-04-22 14:43 | 18.04119 | -63.10503 | 27 ft | 18 kts | 93° |
| 2026-04-22 14:43 | 18.04150 | -63.10500 | 27 ft | 9 kts | 258° |
| 2026-04-22 14:43 | 18.04139 | -63.10565 | 27 ft | 10 kts | 261° |
| 2026-04-22 14:44 | 18.04127 | -63.10656 | 26 ft | 16 kts | 261° |
| 2026-04-22 14:44 | 18.04108 | -63.10787 | 26 ft | 21 kts | 261° |
| 2026-04-22 14:44 | 18.04084 | -63.10952 | 27 ft | 24 kts | 261° |
| 2026-04-22 14:44 | 18.04060 | -63.11118 | 27 ft | 23 kts | 261° |
| 2026-04-22 14:45 | 18.04044 | -63.11272 | 26 ft | 19 kts | 284° |
| 2026-04-22 14:45 | 18.04116 | -63.11295 | 27 ft | 11 kts | 350° |
| 2026-04-22 14:45 | 18.04189 | -63.11308 | 28 ft | 10 kts | 347° |
| 2026-04-22 14:45 | 18.04236 | -63.11350 | 28 ft | 10 kts | 268° |
| 2026-04-22 14:46 | 18.04229 | -63.11423 | 28 ft | 10 kts | 263° |
| 2026-04-22 14:46 | 18.04208 | -63.11490 | 28 ft | 9 kts | 242° |
| 2026-04-22 14:46 | 18.04237 | -63.11534 | 28 ft | 3 kts | 321° |
| 2026-04-22 14:46 | 18.04252 | -63.11545 | 28 ft | 1 kts | 321° |
| 2026-04-22 14:47 | 18.04255 | -63.11548 | 28 ft | 1 kts | 321° |